sensor_id;sensor_type;location;lat;lon;timestamp;P1;durP1;ratioP1;P2;durP2;ratioP2
9821;SDS011;4950;46.042;14.472;2023-11-19T00:02:19;31.08;;;14.88;;
9821;SDS011;4950;46.042;14.472;2023-11-19T00:04:46;29.67;;;15.70;;
9821;SDS011;4950;46.042;14.472;2023-11-19T00:07:13;29.80;;;15.32;;
9821;SDS011;4950;46.042;14.472;2023-11-19T00:09:40;28.17;;;17.38;;
9821;SDS011;4950;46.042;14.472;2023-11-19T00:12:08;32.20;;;17.37;;
9821;SDS011;4950;46.042;14.472;2023-11-19T00:14:35;32.85;;;18.88;;
9821;SDS011;4950;46.042;14.472;2023-11-19T00:17:03;30.10;;;18.17;;
9821;SDS011;4950;46.042;14.472;2023-11-19T00:19:30;36.20;;;19.10;;
9821;SDS011;4950;46.042;14.472;2023-11-19T00:21:56;36.83;;;19.65;;
9821;SDS011;4950;46.042;14.472;2023-11-19T00:24:27;33.13;;;19.33;;
9821;SDS011;4950;46.042;14.472;2023-11-19T00:26:54;36.50;;;19.40;;
9821;SDS011;4950;46.042;14.472;2023-11-19T00:29:21;35.67;;;19.70;;
9821;SDS011;4950;46.042;14.472;2023-11-19T00:31:48;32.72;;;17.75;;
9821;SDS011;4950;46.042;14.472;2023-11-19T00:34:16;33.95;;;17.80;;
9821;SDS011;4950;46.042;14.472;2023-11-19T00:36:46;32.50;;;17.33;;
9821;SDS011;4950;46.042;14.472;2023-11-19T00:39:13;37.43;;;17.90;;
9821;SDS011;4950;46.042;14.472;2023-11-19T00:41:40;30.42;;;16.63;;
9821;SDS011;4950;46.042;14.472;2023-11-19T00:44:07;28.60;;;16.15;;
9821;SDS011;4950;46.042;14.472;2023-11-19T00:46:34;27.58;;;15.90;;
9821;SDS011;4950;46.042;14.472;2023-11-19T00:49:01;28.85;;;14.77;;
9821;SDS011;4950;46.042;14.472;2023-11-19T00:51:30;28.77;;;16.45;;
9821;SDS011;4950;46.042;14.472;2023-11-19T00:53:57;25.00;;;14.77;;
9821;SDS011;4950;46.042;14.472;2023-11-19T00:56:24;26.20;;;14.90;;
9821;SDS011;4950;46.042;14.472;2023-11-19T00:58:51;28.98;;;15.38;;
9821;SDS011;4950;46.042;14.472;2023-11-19T01:01:17;26.13;;;14.75;;
9821;SDS011;4950;46.042;14.472;2023-11-19T01:03:44;26.15;;;14.50;;
9821;SDS011;4950;46.042;14.472;2023-11-19T01:06:11;27.23;;;15.23;;
9821;SDS011;4950;46.042;14.472;2023-11-19T01:08:40;25.50;;;15.50;;
9821;SDS011;4950;46.042;14.472;2023-11-19T01:11:08;27.63;;;14.73;;
9821;SDS011;4950;46.042;14.472;2023-11-19T01:13:35;26.03;;;14.73;;
9821;SDS011;4950;46.042;14.472;2023-11-19T01:16:02;28.57;;;15.93;;
9821;SDS011;4950;46.042;14.472;2023-11-19T01:18:29;27.60;;;14.23;;
9821;SDS011;4950;46.042;14.472;2023-11-19T01:20:55;26.38;;;14.60;;
9821;SDS011;4950;46.042;14.472;2023-11-19T01:23:22;27.70;;;14.83;;
9821;SDS011;4950;46.042;14.472;2023-11-19T01:25:50;27.37;;;13.60;;
9821;SDS011;4950;46.042;14.472;2023-11-19T01:28:16;20.97;;;12.50;;
9821;SDS011;4950;46.042;14.472;2023-11-19T01:30:44;28.88;;;12.55;;
9821;SDS011;4950;46.042;14.472;2023-11-19T01:33:10;21.87;;;13.00;;
9821;SDS011;4950;46.042;14.472;2023-11-19T01:35:37;23.00;;;12.93;;
9821;SDS011;4950;46.042;14.472;2023-11-19T01:38:04;27.10;;;13.73;;
9821;SDS011;4950;46.042;14.472;2023-11-19T01:40:31;23.57;;;13.37;;
9821;SDS011;4950;46.042;14.472;2023-11-19T01:42:59;23.20;;;13.20;;
9821;SDS011;4950;46.042;14.472;2023-11-19T01:45:27;24.57;;;12.77;;
9821;SDS011;4950;46.042;14.472;2023-11-19T01:47:56;22.87;;;12.63;;
9821;SDS011;4950;46.042;14.472;2023-11-19T01:50:23;23.97;;;13.43;;
9821;SDS011;4950;46.042;14.472;2023-11-19T01:52:50;20.90;;;12.17;;
9821;SDS011;4950;46.042;14.472;2023-11-19T01:55:18;22.43;;;11.47;;
9821;SDS011;4950;46.042;14.472;2023-11-19T01:57:46;21.03;;;12.07;;
9821;SDS011;4950;46.042;14.472;2023-11-19T02:00:16;21.53;;;12.07;;
9821;SDS011;4950;46.042;14.472;2023-11-19T02:02:44;23.03;;;11.50;;
9821;SDS011;4950;46.042;14.472;2023-11-19T02:05:13;22.70;;;12.10;;
9821;SDS011;4950;46.042;14.472;2023-11-19T02:07:40;19.90;;;11.47;;
9821;SDS011;4950;46.042;14.472;2023-11-19T02:10:07;21.40;;;11.90;;
9821;SDS011;4950;46.042;14.472;2023-11-19T02:12:38;21.50;;;12.57;;
9821;SDS011;4950;46.042;14.472;2023-11-19T02:15:08;24.30;;;14.10;;
9821;SDS011;4950;46.042;14.472;2023-11-19T02:17:36;26.17;;;14.57;;
9821;SDS011;4950;46.042;14.472;2023-11-19T02:20:03;24.57;;;14.50;;
9821;SDS011;4950;46.042;14.472;2023-11-19T02:22:34;26.33;;;14.30;;
9821;SDS011;4950;46.042;14.472;2023-11-19T02:25:01;25.83;;;13.53;;
9821;SDS011;4950;46.042;14.472;2023-11-19T02:27:48;21.73;;;13.43;;
9821;SDS011;4950;46.042;14.472;2023-11-19T02:30:20;18.43;;;11.10;;
9821;SDS011;4950;46.042;14.472;2023-11-19T02:32:51;21.10;;;11.53;;
9821;SDS011;4950;46.042;14.472;2023-11-19T02:35:17;18.97;;;11.20;;
9821;SDS011;4950;46.042;14.472;2023-11-19T02:37:44;20.63;;;11.67;;
9821;SDS011;4950;46.042;14.472;2023-11-19T02:40:11;20.13;;;10.77;;
9821;SDS011;4950;46.042;14.472;2023-11-19T02:42:38;22.30;;;11.00;;
9821;SDS011;4950;46.042;14.472;2023-11-19T02:45:07;18.53;;;10.10;;
9821;SDS011;4950;46.042;14.472;2023-11-19T02:47:39;15.70;;;8.90;;
9821;SDS011;4950;46.042;14.472;2023-11-19T02:50:06;20.97;;;9.93;;
9821;SDS011;4950;46.042;14.472;2023-11-19T02:52:39;18.00;;;8.83;;
9821;SDS011;4950;46.042;14.472;2023-11-19T02:55:06;20.07;;;9.77;;
9821;SDS011;4950;46.042;14.472;2023-11-19T02:57:37;17.93;;;9.90;;
9821;SDS011;4950;46.042;14.472;2023-11-19T03:00:07;16.30;;;9.40;;
9821;SDS011;4950;46.042;14.472;2023-11-19T03:02:38;19.50;;;10.13;;
9821;SDS011;4950;46.042;14.472;2023-11-19T03:05:09;16.20;;;9.33;;
9821;SDS011;4950;46.042;14.472;2023-11-19T03:07:36;18.40;;;9.60;;
9821;SDS011;4950;46.042;14.472;2023-11-19T03:10:03;18.03;;;9.43;;
9821;SDS011;4950;46.042;14.472;2023-11-19T03:12:31;18.53;;;9.90;;
9821;SDS011;4950;46.042;14.472;2023-11-19T03:14:58;16.63;;;8.67;;
9821;SDS011;4950;46.042;14.472;2023-11-19T03:17:26;19.33;;;8.77;;
9821;SDS011;4950;46.042;14.472;2023-11-19T03:19:52;16.53;;;9.60;;
9821;SDS011;4950;46.042;14.472;2023-11-19T03:22:19;16.80;;;9.43;;
9821;SDS011;4950;46.042;14.472;2023-11-19T03:24:46;16.57;;;8.93;;
9821;SDS011;4950;46.042;14.472;2023-11-19T03:27:13;16.97;;;9.10;;
9821;SDS011;4950;46.042;14.472;2023-11-19T03:29:40;17.90;;;9.10;;
9821;SDS011;4950;46.042;14.472;2023-11-19T03:32:06;19.70;;;9.30;;
9821;SDS011;4950;46.042;14.472;2023-11-19T03:34:35;17.53;;;9.33;;
9821;SDS011;4950;46.042;14.472;2023-11-19T03:37:02;17.43;;;9.77;;
9821;SDS011;4950;46.042;14.472;2023-11-19T03:39:29;17.07;;;8.50;;
9821;SDS011;4950;46.042;14.472;2023-11-19T03:41:56;16.83;;;9.40;;
9821;SDS011;4950;46.042;14.472;2023-11-19T03:44:22;18.17;;;9.63;;
9821;SDS011;4950;46.042;14.472;2023-11-19T03:46:51;16.48;;;10.15;;
9821;SDS011;4950;46.042;14.472;2023-11-19T03:49:18;20.03;;;10.53;;
9821;SDS011;4950;46.042;14.472;2023-11-19T03:51:46;18.63;;;11.47;;
9821;SDS011;4950;46.042;14.472;2023-11-19T03:54:15;23.50;;;11.77;;
9821;SDS011;4950;46.042;14.472;2023-11-19T03:56:42;22.38;;;11.40;;
9821;SDS011;4950;46.042;14.472;2023-11-19T03:59:08;17.63;;;10.50;;
9821;SDS011;4950;46.042;14.472;2023-11-19T04:01:35;18.23;;;10.47;;
9821;SDS011;4950;46.042;14.472;2023-11-19T04:04:02;17.20;;;9.07;;
9821;SDS011;4950;46.042;14.472;2023-11-19T04:06:31;15.85;;;9.52;;
9821;SDS011;4950;46.042;14.472;2023-11-19T04:08:59;16.67;;;8.80;;
9821;SDS011;4950;46.042;14.472;2023-11-19T04:11:26;16.93;;;9.43;;
9821;SDS011;4950;46.042;14.472;2023-11-19T04:13:53;19.07;;;9.33;;
9821;SDS011;4950;46.042;14.472;2023-11-19T04:16:25;15.43;;;8.23;;
9821;SDS011;4950;46.042;14.472;2023-11-19T04:18:53;16.60;;;8.93;;
9821;SDS011;4950;46.042;14.472;2023-11-19T04:21:19;17.47;;;8.70;;
9821;SDS011;4950;46.042;14.472;2023-11-19T04:23:48;12.07;;;7.97;;
9821;SDS011;4950;46.042;14.472;2023-11-19T04:26:16;14.00;;;7.50;;
9821;SDS011;4950;46.042;14.472;2023-11-19T04:28:42;12.90;;;7.03;;
9821;SDS011;4950;46.042;14.472;2023-11-19T04:31:09;12.83;;;7.60;;
9821;SDS011;4950;46.042;14.472;2023-11-19T04:33:36;17.47;;;8.33;;
9821;SDS011;4950;46.042;14.472;2023-11-19T04:36:03;12.83;;;7.47;;
9821;SDS011;4950;46.042;14.472;2023-11-19T04:38:30;16.23;;;9.00;;
9821;SDS011;4950;46.042;14.472;2023-11-19T04:40:57;20.43;;;11.37;;
9821;SDS011;4950;46.042;14.472;2023-11-19T04:43:25;17.60;;;10.40;;
9821;SDS011;4950;46.042;14.472;2023-11-19T04:45:51;18.97;;;11.13;;
9821;SDS011;4950;46.042;14.472;2023-11-19T04:48:18;19.23;;;11.70;;
9821;SDS011;4950;46.042;14.472;2023-11-19T04:50:45;24.70;;;12.20;;
9821;SDS011;4950;46.042;14.472;2023-11-19T04:53:12;23.63;;;12.33;;
9821;SDS011;4950;46.042;14.472;2023-11-19T04:55:40;21.10;;;12.27;;
9821;SDS011;4950;46.042;14.472;2023-11-19T04:58:07;21.50;;;12.00;;
9821;SDS011;4950;46.042;14.472;2023-11-19T05:00:35;20.60;;;11.33;;
9821;SDS011;4950;46.042;14.472;2023-11-19T05:03:02;21.93;;;12.33;;
9821;SDS011;4950;46.042;14.472;2023-11-19T05:05:29;21.90;;;12.30;;
9821;SDS011;4950;46.042;14.472;2023-11-19T05:07:56;25.37;;;14.10;;
9821;SDS011;4950;46.042;14.472;2023-11-19T05:10:23;25.27;;;13.50;;
9821;SDS011;4950;46.042;14.472;2023-11-19T05:12:50;22.10;;;13.70;;
9821;SDS011;4950;46.042;14.472;2023-11-19T05:15:16;24.67;;;14.70;;
9821;SDS011;4950;46.042;14.472;2023-11-19T05:17:45;23.23;;;13.73;;
9821;SDS011;4950;46.042;14.472;2023-11-19T05:20:11;25.90;;;14.57;;
9821;SDS011;4950;46.042;14.472;2023-11-19T05:22:39;22.40;;;13.90;;
9821;SDS011;4950;46.042;14.472;2023-11-19T05:25:07;22.37;;;13.13;;
9821;SDS011;4950;46.042;14.472;2023-11-19T05:27:34;24.27;;;14.27;;
9821;SDS011;4950;46.042;14.472;2023-11-19T05:30:00;23.37;;;13.47;;
9821;SDS011;4950;46.042;14.472;2023-11-19T05:32:27;26.40;;;14.30;;
9821;SDS011;4950;46.042;14.472;2023-11-19T05:34:55;24.47;;;12.37;;
9821;SDS011;4950;46.042;14.472;2023-11-19T05:37:22;23.40;;;12.37;;
9821;SDS011;4950;46.042;14.472;2023-11-19T05:39:50;19.97;;;11.73;;
9821;SDS011;4950;46.042;14.472;2023-11-19T05:42:17;19.73;;;10.90;;
9821;SDS011;4950;46.042;14.472;2023-11-19T05:44:44;20.40;;;11.57;;
9821;SDS011;4950;46.042;14.472;2023-11-19T05:47:11;26.90;;;11.67;;
9821;SDS011;4950;46.042;14.472;2023-11-19T05:49:38;22.80;;;11.20;;
9821;SDS011;4950;46.042;14.472;2023-11-19T05:52:06;21.00;;;11.73;;
9821;SDS011;4950;46.042;14.472;2023-11-19T05:54:34;19.07;;;12.40;;
9821;SDS011;4950;46.042;14.472;2023-11-19T05:57:03;23.07;;;12.23;;
9821;SDS011;4950;46.042;14.472;2023-11-19T05:59:30;20.23;;;12.30;;
9821;SDS011;4950;46.042;14.472;2023-11-19T06:01:58;21.80;;;12.23;;
9821;SDS011;4950;46.042;14.472;2023-11-19T06:04:25;23.00;;;12.80;;
9821;SDS011;4950;46.042;14.472;2023-11-19T06:06:52;20.37;;;12.17;;
9821;SDS011;4950;46.042;14.472;2023-11-19T06:09:21;24.20;;;13.30;;
9821;SDS011;4950;46.042;14.472;2023-11-19T06:11:49;23.00;;;13.13;;
9821;SDS011;4950;46.042;14.472;2023-11-19T06:14:16;17.70;;;11.83;;
9821;SDS011;4950;46.042;14.472;2023-11-19T06:16:42;23.00;;;12.63;;
9821;SDS011;4950;46.042;14.472;2023-11-19T06:19:09;20.17;;;11.73;;
9821;SDS011;4950;46.042;14.472;2023-11-19T06:21:37;20.63;;;11.63;;
9821;SDS011;4950;46.042;14.472;2023-11-19T06:24:05;20.60;;;12.20;;
9821;SDS011;4950;46.042;14.472;2023-11-19T06:26:35;20.23;;;12.33;;
9821;SDS011;4950;46.042;14.472;2023-11-19T06:29:02;20.07;;;12.30;;
9821;SDS011;4950;46.042;14.472;2023-11-19T06:31:29;22.90;;;12.17;;
9821;SDS011;4950;46.042;14.472;2023-11-19T06:33:56;21.13;;;12.70;;
9821;SDS011;4950;46.042;14.472;2023-11-19T06:36:23;24.63;;;14.10;;
9821;SDS011;4950;46.042;14.472;2023-11-19T06:38:49;21.40;;;13.73;;
9821;SDS011;4950;46.042;14.472;2023-11-19T06:41:16;24.37;;;13.67;;
9821;SDS011;4950;46.042;14.472;2023-11-19T06:43:44;23.48;;;13.90;;
9821;SDS011;4950;46.042;14.472;2023-11-19T06:46:14;22.73;;;13.57;;
9821;SDS011;4950;46.042;14.472;2023-11-19T06:48:41;22.90;;;13.37;;
9821;SDS011;4950;46.042;14.472;2023-11-19T06:51:09;20.77;;;12.43;;
9821;SDS011;4950;46.042;14.472;2023-11-19T06:53:35;22.47;;;12.40;;
9821;SDS011;4950;46.042;14.472;2023-11-19T06:56:02;22.83;;;12.87;;
9821;SDS011;4950;46.042;14.472;2023-11-19T06:58:31;24.73;;;12.67;;
9821;SDS011;4950;46.042;14.472;2023-11-19T07:01:01;22.50;;;11.93;;
9821;SDS011;4950;46.042;14.472;2023-11-19T07:03:27;18.43;;;10.93;;
9821;SDS011;4950;46.042;14.472;2023-11-19T07:05:54;25.37;;;11.97;;
9821;SDS011;4950;46.042;14.472;2023-11-19T07:08:21;23.53;;;11.93;;
9821;SDS011;4950;46.042;14.472;2023-11-19T07:10:48;22.63;;;11.67;;
9821;SDS011;4950;46.042;14.472;2023-11-19T07:13:14;23.13;;;12.60;;
9821;SDS011;4950;46.042;14.472;2023-11-19T07:15:41;19.73;;;12.53;;
9821;SDS011;4950;46.042;14.472;2023-11-19T07:18:09;24.37;;;13.23;;
9821;SDS011;4950;46.042;14.472;2023-11-19T07:20:37;22.03;;;12.73;;
9821;SDS011;4950;46.042;14.472;2023-11-19T07:23:05;22.40;;;12.73;;
9821;SDS011;4950;46.042;14.472;2023-11-19T07:25:31;24.43;;;12.90;;
9821;SDS011;4950;46.042;14.472;2023-11-19T07:28:00;21.47;;;13.33;;
9821;SDS011;4950;46.042;14.472;2023-11-19T07:30:29;21.77;;;13.55;;
9821;SDS011;4950;46.042;14.472;2023-11-19T07:32:56;22.53;;;12.43;;
9821;SDS011;4950;46.042;14.472;2023-11-19T07:35:24;22.57;;;12.80;;
9821;SDS011;4950;46.042;14.472;2023-11-19T07:37:51;25.63;;;12.83;;
9821;SDS011;4950;46.042;14.472;2023-11-19T07:40:18;24.10;;;12.47;;
9821;SDS011;4950;46.042;14.472;2023-11-19T07:42:45;19.77;;;11.70;;
9821;SDS011;4950;46.042;14.472;2023-11-19T07:45:11;25.87;;;13.70;;
9821;SDS011;4950;46.042;14.472;2023-11-19T07:47:38;22.07;;;13.80;;
9821;SDS011;4950;46.042;14.472;2023-11-19T07:50:05;30.20;;;15.37;;
9821;SDS011;4950;46.042;14.472;2023-11-19T07:52:34;23.30;;;13.53;;
9821;SDS011;4950;46.042;14.472;2023-11-19T07:55:01;22.70;;;14.13;;
9821;SDS011;4950;46.042;14.472;2023-11-19T07:57:27;23.70;;;14.63;;
9821;SDS011;4950;46.042;14.472;2023-11-19T07:59:56;26.60;;;14.55;;
9821;SDS011;4950;46.042;14.472;2023-11-19T08:02:22;24.98;;;16.23;;
9821;SDS011;4950;46.042;14.472;2023-11-19T08:04:49;24.53;;;14.40;;
9821;SDS011;4950;46.042;14.472;2023-11-19T08:07:17;28.17;;;14.30;;
9821;SDS011;4950;46.042;14.472;2023-11-19T08:09:45;28.37;;;17.47;;
9821;SDS011;4950;46.042;14.472;2023-11-19T08:12:12;26.97;;;15.57;;
9821;SDS011;4950;46.042;14.472;2023-11-19T08:14:39;25.13;;;14.82;;
9821;SDS011;4950;46.042;14.472;2023-11-19T08:17:06;24.67;;;14.07;;
9821;SDS011;4950;46.042;14.472;2023-11-19T08:19:33;30.10;;;14.13;;
9821;SDS011;4950;46.042;14.472;2023-11-19T08:21:59;25.33;;;15.98;;
9821;SDS011;4950;46.042;14.472;2023-11-19T08:24:27;26.80;;;15.43;;
9821;SDS011;4950;46.042;14.472;2023-11-19T08:26:55;24.13;;;14.52;;
9821;SDS011;4950;46.042;14.472;2023-11-19T08:29:22;30.40;;;15.35;;
9821;SDS011;4950;46.042;14.472;2023-11-19T08:31:48;24.83;;;16.13;;
9821;SDS011;4950;46.042;14.472;2023-11-19T08:34:15;29.38;;;16.10;;
9821;SDS011;4950;46.042;14.472;2023-11-19T08:36:42;24.05;;;14.80;;
9821;SDS011;4950;46.042;14.472;2023-11-19T08:39:08;26.25;;;15.75;;
9821;SDS011;4950;46.042;14.472;2023-11-19T08:41:35;24.00;;;15.40;;
9821;SDS011;4950;46.042;14.472;2023-11-19T08:44:04;26.55;;;16.70;;
9821;SDS011;4950;46.042;14.472;2023-11-19T08:46:31;33.80;;;15.15;;
9821;SDS011;4950;46.042;14.472;2023-11-19T08:48:58;22.70;;;15.32;;
9821;SDS011;4950;46.042;14.472;2023-11-19T08:51:25;20.90;;;14.18;;
9821;SDS011;4950;46.042;14.472;2023-11-19T08:53:53;22.08;;;13.95;;
9821;SDS011;4950;46.042;14.472;2023-11-19T08:56:20;24.10;;;14.63;;
9821;SDS011;4950;46.042;14.472;2023-11-19T08:58:47;21.95;;;14.05;;
9821;SDS011;4950;46.042;14.472;2023-11-19T09:01:15;22.08;;;13.98;;
9821;SDS011;4950;46.042;14.472;2023-11-19T09:03:42;25.52;;;14.98;;
9821;SDS011;4950;46.042;14.472;2023-11-19T09:06:09;22.60;;;14.10;;
9821;SDS011;4950;46.042;14.472;2023-11-19T09:08:35;24.73;;;15.10;;
9821;SDS011;4950;46.042;14.472;2023-11-19T09:11:06;21.15;;;12.90;;
9821;SDS011;4950;46.042;14.472;2023-11-19T09:13:33;26.27;;;14.73;;
9821;SDS011;4950;46.042;14.472;2023-11-19T09:16:00;27.63;;;13.80;;
9821;SDS011;4950;46.042;14.472;2023-11-19T09:18:30;27.73;;;14.70;;
9821;SDS011;4950;46.042;14.472;2023-11-19T09:20:57;22.45;;;14.50;;
9821;SDS011;4950;46.042;14.472;2023-11-19T09:23:23;24.25;;;14.90;;
9821;SDS011;4950;46.042;14.472;2023-11-19T09:25:50;26.02;;;15.32;;
9821;SDS011;4950;46.042;14.472;2023-11-19T09:28:17;28.08;;;14.90;;
9821;SDS011;4950;46.042;14.472;2023-11-19T09:30:44;26.77;;;16.20;;
9821;SDS011;4950;46.042;14.472;2023-11-19T09:33:15;25.67;;;15.40;;
9821;SDS011;4950;46.042;14.472;2023-11-19T09:35:43;25.35;;;15.88;;
9821;SDS011;4950;46.042;14.472;2023-11-19T09:38:10;25.80;;;15.60;;
9821;SDS011;4950;46.042;14.472;2023-11-19T09:40:37;25.92;;;15.88;;
9821;SDS011;4950;46.042;14.472;2023-11-19T09:43:04;33.40;;;16.40;;
9821;SDS011;4950;46.042;14.472;2023-11-19T09:45:31;25.75;;;15.85;;
9821;SDS011;4950;46.042;14.472;2023-11-19T09:48:03;24.85;;;16.17;;
9821;SDS011;4950;46.042;14.472;2023-11-19T09:50:30;29.88;;;16.88;;
9821;SDS011;4950;46.042;14.472;2023-11-19T09:52:58;26.08;;;16.52;;
9821;SDS011;4950;46.042;14.472;2023-11-19T09:55:25;27.23;;;17.30;;
9821;SDS011;4950;46.042;14.472;2023-11-19T09:57:52;32.33;;;17.42;;
9821;SDS011;4950;46.042;14.472;2023-11-19T10:00:19;27.17;;;16.95;;
9821;SDS011;4950;46.042;14.472;2023-11-19T10:02:47;33.33;;;19.90;;
9821;SDS011;4950;46.042;14.472;2023-11-19T10:05:16;26.35;;;16.52;;
9821;SDS011;4950;46.042;14.472;2023-11-19T10:07:42;25.52;;;17.23;;
9821;SDS011;4950;46.042;14.472;2023-11-19T10:10:11;32.40;;;16.80;;
9821;SDS011;4950;46.042;14.472;2023-11-19T10:12:43;31.88;;;17.90;;
9821;SDS011;4950;46.042;14.472;2023-11-19T10:15:11;29.80;;;17.95;;
9821;SDS011;4950;46.042;14.472;2023-11-19T10:17:46;28.70;;;18.00;;
9821;SDS011;4950;46.042;14.472;2023-11-19T10:20:12;28.42;;;17.40;;
9821;SDS011;4950;46.042;14.472;2023-11-19T10:22:39;28.90;;;17.88;;
9821;SDS011;4950;46.042;14.472;2023-11-19T10:25:08;27.30;;;18.08;;
9821;SDS011;4950;46.042;14.472;2023-11-19T10:27:50;33.35;;;18.67;;
9821;SDS011;4950;46.042;14.472;2023-11-19T10:30:17;28.23;;;18.10;;
9821;SDS011;4950;46.042;14.472;2023-11-19T10:32:44;30.77;;;17.80;;
9821;SDS011;4950;46.042;14.472;2023-11-19T10:35:11;27.20;;;17.52;;
9821;SDS011;4950;46.042;14.472;2023-11-19T10:37:38;26.27;;;18.15;;
9821;SDS011;4950;46.042;14.472;2023-11-19T10:40:06;30.55;;;18.80;;
9821;SDS011;4950;46.042;14.472;2023-11-19T10:42:36;28.88;;;18.75;;
9821;SDS011;4950;46.042;14.472;2023-11-19T10:45:03;32.03;;;17.88;;
9821;SDS011;4950;46.042;14.472;2023-11-19T10:47:31;26.65;;;17.25;;
9821;SDS011;4950;46.042;14.472;2023-11-19T10:50:01;31.65;;;18.33;;
9821;SDS011;4950;46.042;14.472;2023-11-19T10:52:30;29.77;;;18.15;;
9821;SDS011;4950;46.042;14.472;2023-11-19T10:54:58;34.97;;;19.10;;
9821;SDS011;4950;46.042;14.472;2023-11-19T10:57:26;31.10;;;18.52;;
9821;SDS011;4950;46.042;14.472;2023-11-19T11:00:00;24.63;;;16.08;;
9821;SDS011;4950;46.042;14.472;2023-11-19T11:02:29;27.70;;;17.63;;
9821;SDS011;4950;46.042;14.472;2023-11-19T11:05:00;28.92;;;18.23;;
9821;SDS011;4950;46.042;14.472;2023-11-19T11:07:28;29.40;;;17.33;;
9821;SDS011;4950;46.042;14.472;2023-11-19T11:09:57;29.85;;;19.60;;
9821;SDS011;4950;46.042;14.472;2023-11-19T11:12:25;24.30;;;16.48;;
9821;SDS011;4950;46.042;14.472;2023-11-19T11:14:53;26.17;;;16.42;;
9821;SDS011;4950;46.042;14.472;2023-11-19T11:17:21;29.77;;;17.83;;
9821;SDS011;4950;46.042;14.472;2023-11-19T11:19:53;25.48;;;16.38;;
9821;SDS011;4950;46.042;14.472;2023-11-19T11:22:20;30.15;;;18.08;;
9821;SDS011;4950;46.042;14.472;2023-11-19T11:24:58;30.80;;;17.92;;
9821;SDS011;4950;46.042;14.472;2023-11-19T11:27:59;33.78;;;18.08;;
9821;SDS011;4950;46.042;14.472;2023-11-19T11:30:38;25.80;;;16.90;;
9821;SDS011;4950;46.042;14.472;2023-11-19T11:33:20;27.63;;;18.25;;
9821;SDS011;4950;46.042;14.472;2023-11-19T11:36:01;27.83;;;16.65;;
9821;SDS011;4950;46.042;14.472;2023-11-19T11:38:39;29.52;;;17.05;;
9821;SDS011;4950;46.042;14.472;2023-11-19T11:41:17;22.45;;;14.50;;
9821;SDS011;4950;46.042;14.472;2023-11-19T11:43:45;27.35;;;16.00;;
9821;SDS011;4950;46.042;14.472;2023-11-19T11:49:18;22.48;;;14.02;;
9821;SDS011;4950;46.042;14.472;2023-11-19T11:52:00;23.83;;;14.60;;
9821;SDS011;4950;46.042;14.472;2023-11-19T11:54:28;21.67;;;12.65;;
9821;SDS011;4950;46.042;14.472;2023-11-19T11:57:02;20.90;;;13.38;;
9821;SDS011;4950;46.042;14.472;2023-11-19T11:59:41;20.10;;;12.32;;
9821;SDS011;4950;46.042;14.472;2023-11-19T12:02:11;17.42;;;11.88;;
9821;SDS011;4950;46.042;14.472;2023-11-19T12:04:41;20.25;;;12.48;;
9821;SDS011;4950;46.042;14.472;2023-11-19T12:07:09;20.33;;;11.60;;
9821;SDS011;4950;46.042;14.472;2023-11-19T12:09:39;21.27;;;11.68;;
9821;SDS011;4950;46.042;14.472;2023-11-19T12:12:07;21.05;;;11.93;;
9821;SDS011;4950;46.042;14.472;2023-11-19T12:17:37;24.08;;;12.98;;
9821;SDS011;4950;46.042;14.472;2023-11-19T12:20:15;17.10;;;10.93;;
9821;SDS011;4950;46.042;14.472;2023-11-19T12:22:44;17.85;;;11.98;;
9821;SDS011;4950;46.042;14.472;2023-11-19T12:25:11;19.00;;;11.57;;
9821;SDS011;4950;46.042;14.472;2023-11-19T12:27:39;19.95;;;12.30;;
9821;SDS011;4950;46.042;14.472;2023-11-19T12:30:08;20.83;;;11.90;;
9821;SDS011;4950;46.042;14.472;2023-11-19T12:32:41;20.30;;;12.57;;
9821;SDS011;4950;46.042;14.472;2023-11-19T12:35:09;18.83;;;12.05;;
9821;SDS011;4950;46.042;14.472;2023-11-19T12:37:42;19.73;;;11.45;;
9821;SDS011;4950;46.042;14.472;2023-11-19T12:40:16;20.05;;;12.25;;
9821;SDS011;4950;46.042;14.472;2023-11-19T12:42:44;20.05;;;11.90;;
9821;SDS011;4950;46.042;14.472;2023-11-19T12:45:11;18.92;;;11.73;;
9821;SDS011;4950;46.042;14.472;2023-11-19T12:47:38;19.55;;;12.45;;
9821;SDS011;4950;46.042;14.472;2023-11-19T12:50:06;22.23;;;13.77;;
9821;SDS011;4950;46.042;14.472;2023-11-19T12:52:34;22.25;;;12.25;;
9821;SDS011;4950;46.042;14.472;2023-11-19T12:55:02;17.90;;;11.70;;
9821;SDS011;4950;46.042;14.472;2023-11-19T12:57:36;22.15;;;12.48;;
9821;SDS011;4950;46.042;14.472;2023-11-19T13:00:04;17.60;;;11.77;;
9821;SDS011;4950;46.042;14.472;2023-11-19T13:02:44;20.33;;;12.60;;
9821;SDS011;4950;46.042;14.472;2023-11-19T13:05:24;18.77;;;12.38;;
9821;SDS011;4950;46.042;14.472;2023-11-19T13:07:59;17.27;;;12.35;;
9821;SDS011;4950;46.042;14.472;2023-11-19T13:10:29;22.48;;;12.82;;
9821;SDS011;4950;46.042;14.472;2023-11-19T13:13:00;20.63;;;13.48;;
9821;SDS011;4950;46.042;14.472;2023-11-19T13:15:31;18.90;;;12.65;;
9821;SDS011;4950;46.042;14.472;2023-11-19T13:17:58;18.73;;;12.68;;
9821;SDS011;4950;46.042;14.472;2023-11-19T13:20:25;21.05;;;13.32;;
9821;SDS011;4950;46.042;14.472;2023-11-19T13:22:56;19.77;;;12.27;;
9821;SDS011;4950;46.042;14.472;2023-11-19T13:25:23;18.98;;;12.15;;
9821;SDS011;4950;46.042;14.472;2023-11-19T13:27:52;20.88;;;12.52;;
9821;SDS011;4950;46.042;14.472;2023-11-19T13:30:19;18.55;;;10.70;;
9821;SDS011;4950;46.042;14.472;2023-11-19T13:32:47;19.95;;;11.20;;
9821;SDS011;4950;46.042;14.472;2023-11-19T13:35:14;11.90;;;7.15;;
9821;SDS011;4950;46.042;14.472;2023-11-19T13:37:42;5.82;;;2.90;;
9821;SDS011;4950;46.042;14.472;2023-11-19T13:40:09;6.57;;;3.35;;
9821;SDS011;4950;46.042;14.472;2023-11-19T13:42:39;4.20;;;2.47;;
9821;SDS011;4950;46.042;14.472;2023-11-19T13:45:09;9.50;;;2.63;;
9821;SDS011;4950;46.042;14.472;2023-11-19T13:47:39;6.22;;;2.65;;
9821;SDS011;4950;46.042;14.472;2023-11-19T13:50:08;8.20;;;2.83;;
9821;SDS011;4950;46.042;14.472;2023-11-19T13:52:35;7.65;;;3.13;;
9821;SDS011;4950;46.042;14.472;2023-11-19T13:55:04;4.67;;;2.57;;
9821;SDS011;4950;46.042;14.472;2023-11-19T13:57:32;10.00;;;2.70;;
9821;SDS011;4950;46.042;14.472;2023-11-19T13:59:59;7.65;;;2.92;;
9821;SDS011;4950;46.042;14.472;2023-11-19T14:02:28;10.57;;;2.50;;
9821;SDS011;4950;46.042;14.472;2023-11-19T14:04:55;9.60;;;2.70;;
9821;SDS011;4950;46.042;14.472;2023-11-19T14:07:22;12.02;;;2.85;;
9821;SDS011;4950;46.042;14.472;2023-11-19T14:09:49;8.95;;;2.45;;
9821;SDS011;4950;46.042;14.472;2023-11-19T14:12:16;5.07;;;2.28;;
9821;SDS011;4950;46.042;14.472;2023-11-19T14:14:43;9.93;;;2.90;;
9821;SDS011;4950;46.042;14.472;2023-11-19T14:17:11;8.33;;;2.70;;
9821;SDS011;4950;46.042;14.472;2023-11-19T14:20:14;8.50;;;2.85;;
9821;SDS011;4950;46.042;14.472;2023-11-19T14:22:42;5.30;;;3.03;;
9821;SDS011;4950;46.042;14.472;2023-11-19T14:25:11;13.32;;;3.83;;
9821;SDS011;4950;46.042;14.472;2023-11-19T14:27:38;10.63;;;3.40;;
9821;SDS011;4950;46.042;14.472;2023-11-19T14:30:06;9.13;;;3.65;;
9821;SDS011;4950;46.042;14.472;2023-11-19T14:32:35;7.68;;;3.10;;
9821;SDS011;4950;46.042;14.472;2023-11-19T14:35:02;6.70;;;2.50;;
9821;SDS011;4950;46.042;14.472;2023-11-19T14:37:31;10.40;;;4.68;;
9821;SDS011;4950;46.042;14.472;2023-11-19T14:39:58;8.82;;;3.13;;
9821;SDS011;4950;46.042;14.472;2023-11-19T14:42:25;9.13;;;3.53;;
9821;SDS011;4950;46.042;14.472;2023-11-19T14:44:52;8.13;;;3.78;;
9821;SDS011;4950;46.042;14.472;2023-11-19T14:47:19;10.18;;;3.80;;
9821;SDS011;4950;46.042;14.472;2023-11-19T14:49:46;6.88;;;3.08;;
9821;SDS011;4950;46.042;14.472;2023-11-19T14:53:53;5.80;;;2.72;;